Time;durP1;ratioP1;P1;durP2;ratioP2;P2;SDS_P1;SDS_P2;PMS_P1;PMS_P2;Temp;Humidity;BMP_temperature;BMP_pressure;BME280_temperature;BME280_humidity;BME280_pressure;Samples;Min_cycle;Max_cycle;Signal;HPM_P1;HPM_P2
2022/05/23 00:00:07;;;;;;;10.30;3.97;;;;;;;;;;4984327;28;20069;-74
2022/05/23 00:02:32;;;;;;;9.23;4.72;;;;;;;;;;4984984;28;20026;-72
2022/05/23 00:04:57;;;;;;;7.95;4.30;;;;;;;;;;4985753;28;20015;-74
2022/05/23 00:07:25;;;;;;;8.32;3.88;;;;;;;;;;4987182;28;20464;-74
2022/05/23 00:09:51;;;;;;;6.32;3.90;;;;;;;;;;4981183;28;20053;-74
2022/05/23 00:12:16;;;;;;;5.35;3.55;;;;;;;;;;4990848;28;20061;-74
2022/05/23 00:14:43;;;;;;;6.38;4.13;;;;;;;;;;4976500;28;20073;-73
2022/05/23 00:17:09;;;;;;;5.22;3.65;;;;;;;;;;4977470;28;20121;-73
2022/05/23 00:19:34;;;;;;;9.07;3.60;;;;;;;;;;4976669;28;20479;-74
2022/05/23 00:21:59;;;;;;;6.63;3.25;;;;;;;;;;4976635;28;20026;-73
2022/05/23 00:24:25;;;;;;;7.80;3.60;;;;;;;;;;4975983;28;20022;-74
2022/05/23 00:26:51;;;;;;;10.00;4.13;;;;;;;;;;4977559;28;20497;-71
2022/05/23 00:29:16;;;;;;;8.43;3.60;;;;;;;;;;4975562;28;20752;-75
2022/05/23 00:35:17;;;;;;;4.30;3.57;;;;;;;;;;4977714;28;20023;-77
2022/05/23 00:37:10;;;;;;;7.65;2.85;;;;;;;;;;4979459;28;20101;-73
2022/05/23 00:39:35;;;;;;;6.85;2.95;;;;;;;;;;4971705;28;20026;-73
2022/05/23 00:44:45;;;;;;;7.95;3.65;;;;;;;;;;4974373;28;20096;-73
2022/05/23 00:47:18;;;;;;;5.40;3.38;;;;;;;;;;4976377;28;20026;-74
2022/05/23 00:49:43;;;;;;;6.13;3.75;;;;;;;;;;4975349;28;20034;-73
2022/05/23 00:52:11;;;;;;;4.53;3.33;;;;;;;;;;4983373;28;20049;-73
2022/05/23 00:54:41;;;;;;;7.63;3.25;;;;;;;;;;4979687;28;20030;-74
2022/05/23 00:57:07;;;;;;;7.10;3.03;;;;;;;;;;4979066;28;20046;-73
2022/05/23 00:59:33;;;;;;;8.35;3.17;;;;;;;;;;4979497;28;20026;-74
2022/05/23 01:02:00;;;;;;;6.30;3.33;;;;;;;;;;4976559;28;20058;-74
2022/05/23 01:04:25;;;;;;;5.03;2.80;;;;;;;;;;4978241;28;20035;-74
2022/05/23 01:06:50;;;;;;;8.15;3.22;;;;;;;;;;4974029;28;20026;-74
2022/05/23 01:09:16;;;;;;;8.17;3.40;;;;;;;;;;4979773;28;20041;-74
2022/05/23 01:11:41;;;;;;;3.90;3.15;;;;;;;;;;4975561;28;22427;-73
2022/05/23 01:14:07;;;;;;;9.75;4.10;;;;;;;;;;4980377;28;20088;-73
2022/05/23 01:16:32;;;;;;;6.90;3.33;;;;;;;;;;4981358;28;20455;-74
2022/05/23 01:18:57;;;;;;;6.00;3.40;;;;;;;;;;4980044;28;20122;-73
2022/05/23 01:21:38;;;;;;;7.30;3.40;;;;;;;;;;4979763;28;20828;-74
2022/05/23 01:24:18;;;;;;;8.57;3.42;;;;;;;;;;4980065;28;20042;-74
2022/05/23 01:26:43;;;;;;;7.30;3.70;;;;;;;;;;4978495;28;20101;-73
2022/05/23 01:29:12;;;;;;;11.13;3.63;;;;;;;;;;4981820;28;20030;-75
2022/05/23 01:31:38;;;;;;;10.00;4.18;;;;;;;;;;4979646;28;20033;-75
2022/05/23 01:34:03;;;;;;;8.05;3.67;;;;;;;;;;4978145;28;20034;-76
2022/05/23 01:36:28;;;;;;;7.13;4.72;;;;;;;;;;4982300;28;20034;-75
2022/05/23 01:38:53;;;;;;;7.15;3.78;;;;;;;;;;4981409;28;20377;-74
2022/05/23 01:41:18;;;;;;;10.60;3.58;;;;;;;;;;4984271;28;20025;-74
2022/05/23 01:43:43;;;;;;;7.63;3.73;;;;;;;;;;4977222;28;20034;-74
2022/05/23 01:46:09;;;;;;;6.97;3.90;;;;;;;;;;4976972;28;20545;-74
2022/05/23 01:48:34;;;;;;;4.35;3.50;;;;;;;;;;4976541;28;20031;-74
2022/05/23 01:50:59;;;;;;;6.17;4.10;;;;;;;;;;4980371;28;20018;-74
2022/05/23 01:53:26;;;;;;;6.70;3.43;;;;;;;;;;4982548;28;20375;-74
2022/05/23 01:55:51;;;;;;;7.63;3.88;;;;;;;;;;4986121;28;20111;-74
2022/05/23 02:01:12;;;;;;;6.07;3.87;;;;;;;;;;4986285;28;20026;-74
2022/05/23 02:01:14;;;;;;;5.20;3.38;;;;;;;;;;4983104;28;20723;-72
2022/05/23 02:03:39;;;;;;;6.50;3.63;;;;;;;;;;4977729;28;20018;-74
2022/05/23 02:06:04;;;;;;;8.70;4.18;;;;;;;;;;4981367;28;20030;-75
2022/05/23 02:08:30;;;;;;;7.40;4.23;;;;;;;;;;4978135;28;20018;-75
2022/05/23 02:10:55;;;;;;;9.77;3.50;;;;;;;;;;4976721;28;20290;-74
2022/05/23 02:13:20;;;;;;;5.17;3.50;;;;;;;;;;4979141;28;20035;-74
2022/05/23 02:15:45;;;;;;;6.60;3.77;;;;;;;;;;4981370;28;20412;-74
2022/05/23 02:18:10;;;;;;;5.80;3.93;;;;;;;;;;4976225;28;20037;-74
2022/05/23 02:20:35;;;;;;;7.78;3.80;;;;;;;;;;4980664;28;20278;-74
2022/05/23 02:23:01;;;;;;;7.80;3.38;;;;;;;;;;4979033;28;20094;-74
2022/05/23 02:25:26;;;;;;;7.15;3.80;;;;;;;;;;4977736;28;20509;-74
2022/05/23 02:27:51;;;;;;;6.55;3.97;;;;;;;;;;4976848;28;20460;-74
2022/05/23 02:30:16;;;;;;;7.30;3.45;;;;;;;;;;4970767;28;20512;-73
2022/05/23 02:32:41;;;;;;;5.85;3.90;;;;;;;;;;4977404;28;20040;-74
2022/05/23 02:35:07;;;;;;;7.47;4.03;;;;;;;;;;4980520;28;20033;-74
2022/05/23 02:37:33;;;;;;;7.05;4.05;;;;;;;;;;4976731;28;20742;-74
2022/05/23 02:39:58;;;;;;;7.00;3.72;;;;;;;;;;4977568;28;20026;-74
2022/05/23 02:42:23;;;;;;;8.97;4.03;;;;;;;;;;4978251;28;20034;-74
2022/05/23 02:44:48;;;;;;;5.63;3.47;;;;;;;;;;4975336;28;20069;-74
2022/05/23 02:47:13;;;;;;;8.73;4.22;;;;;;;;;;4978445;28;20381;-74
2022/05/23 02:49:39;;;;;;;8.93;3.97;;;;;;;;;;4983459;28;20458;-74
2022/05/23 02:52:04;;;;;;;8.02;4.38;;;;;;;;;;4985783;28;20160;-74
2022/05/23 02:54:29;;;;;;;7.10;3.60;;;;;;;;;;4974819;28;21265;-73
2022/05/23 02:56:54;;;;;;;9.80;4.72;;;;;;;;;;4975494;28;20026;-73
2022/05/23 02:59:20;;;;;;;5.00;4.00;;;;;;;;;;4975476;28;20608;-74
2022/05/23 03:04:29;;;;;;;13.05;4.65;;;;;;;;;;4975527;28;20077;-74
2022/05/23 03:06:54;;;;;;;6.53;4.70;;;;;;;;;;4977888;28;20034;-74
2022/05/23 03:09:19;;;;;;;6.13;4.70;;;;;;;;;;4975798;28;20137;-74
2022/05/23 03:11:45;;;;;;;8.65;5.15;;;;;;;;;;4976710;28;20030;-73
2022/05/23 03:14:10;;;;;;;7.05;4.90;;;;;;;;;;4978905;28;20062;-74
2022/05/23 03:16:35;;;;;;;7.87;5.07;;;;;;;;;;4975387;28;20033;-74
2022/05/23 03:19:00;;;;;;;5.97;4.38;;;;;;;;;;4974320;28;20062;-74
2022/05/23 03:26:59;;;;;;;7.10;4.78;;;;;;;;;;4971070;28;20484;-74
2022/05/23 03:29:24;;;;;;;10.27;4.85;;;;;;;;;;4971067;28;20027;-73
2022/05/23 03:31:50;;;;;;;13.73;5.75;;;;;;;;;;4976015;28;20084;-74
2022/05/23 03:34:15;;;;;;;9.63;5.13;;;;;;;;;;4981630;28;20392;-74
2022/05/23 03:36:40;;;;;;;8.27;4.97;;;;;;;;;;4981689;28;20011;-73
2022/05/23 03:39:05;;;;;;;10.23;5.13;;;;;;;;;;4980734;28;20031;-73
2022/05/23 03:41:30;;;;;;;9.63;5.63;;;;;;;;;;4978152;28;20422;-72
2022/05/23 03:43:55;;;;;;;8.70;5.13;;;;;;;;;;4976014;28;20276;-73
2022/05/23 03:46:21;;;;;;;9.57;5.77;;;;;;;;;;4976507;28;20194;-73
2022/05/23 03:48:46;;;;;;;12.10;5.35;;;;;;;;;;4980071;28;20286;-74
2022/05/23 03:51:11;;;;;;;11.00;5.80;;;;;;;;;;4976180;28;20018;-74
2022/05/23 03:53:36;;;;;;;10.77;5.45;;;;;;;;;;4975549;28;20384;-74
2022/05/23 03:56:02;;;;;;;13.20;5.83;;;;;;;;;;4978338;28;20084;-74
2022/05/23 03:58:28;;;;;;;8.73;5.53;;;;;;;;;;4973373;28;20034;-74
2022/05/23 04:01:02;;;;;;;9.18;4.80;;;;;;;;;;4976867;28;20018;-73
2022/05/23 04:03:27;;;;;;;12.02;6.65;;;;;;;;;;4970244;28;20023;-74
2022/05/23 04:05:52;;;;;;;10.63;5.10;;;;;;;;;;4974268;28;20018;-74
2022/05/23 04:08:18;;;;;;;10.23;6.10;;;;;;;;;;4973958;28;20088;-74
2022/05/23 04:10:43;;;;;;;9.35;5.60;;;;;;;;;;4977591;28;20019;-74
2022/05/23 04:13:08;;;;;;;9.93;6.07;;;;;;;;;;4976302;28;20065;-73
2022/05/23 04:15:33;;;;;;;9.77;5.87;;;;;;;;;;4978621;28;20030;-73
2022/05/23 04:17:59;;;;;;;9.18;6.15;;;;;;;;;;4978885;28;20311;-74
2022/05/23 04:20:24;;;;;;;9.75;5.82;;;;;;;;;;4974777;28;20030;-73
2022/05/23 04:22:49;;;;;;;11.93;6.20;;;;;;;;;;4973883;28;20536;-74
2022/05/23 04:25:14;;;;;;;11.13;5.88;;;;;;;;;;4971323;28;20022;-74
2022/05/23 04:27:40;;;;;;;8.63;5.70;;;;;;;;;;4978213;28;20063;-73
2022/05/23 04:30:07;;;;;;;10.68;6.13;;;;;;;;;;4976880;28;20041;-72
2022/05/23 04:35:16;;;;;;;13.73;6.10;;;;;;;;;;4977218;28;20038;-72
2022/05/23 04:37:44;;;;;;;14.10;6.32;;;;;;;;;;4975886;28;20411;-73
2022/05/23 04:40:10;;;;;;;15.15;7.22;;;;;;;;;;4977186;28;20068;-75
2022/05/23 04:42:35;;;;;;;12.27;6.68;;;;;;;;;;4975879;28;20030;-74
2022/05/23 04:45:00;;;;;;;10.43;6.40;;;;;;;;;;4978844;28;20072;-75
2022/05/23 04:50:09;;;;;;;12.73;7.18;;;;;;;;;;4975005;28;20388;-74
2022/05/23 04:52:34;;;;;;;9.77;6.17;;;;;;;;;;4983915;28;20114;-74
2022/05/23 04:54:59;;;;;;;11.90;6.63;;;;;;;;;;4985586;28;20025;-74
2022/05/23 04:57:25;;;;;;;11.23;6.72;;;;;;;;;;4982547;28;20036;-74
2022/05/23 04:59:50;;;;;;;12.43;6.93;;;;;;;;;;4984676;28;20022;-74
2022/05/23 05:02:15;;;;;;;16.17;7.37;;;;;;;;;;4988834;28;20760;-74
2022/05/23 05:04:40;;;;;;;13.77;7.57;;;;;;;;;;4999847;28;20054;-74
2022/05/23 05:07:06;;;;;;;13.15;7.50;;;;;;;;;;4984085;28;20041;-74
2022/05/23 05:09:31;;;;;;;13.90;7.97;;;;;;;;;;4992127;28;20027;-74
2022/05/23 05:11:56;;;;;;;17.98;8.02;;;;;;;;;;4980751;28;20271;-74
2022/05/23 05:14:22;;;;;;;12.83;7.73;;;;;;;;;;4986267;28;20026;-74
2022/05/23 05:16:47;;;;;;;13.98;7.68;;;;;;;;;;4989003;28;20680;-74
2022/05/23 05:19:12;;;;;;;16.43;8.00;;;;;;;;;;4985964;28;20911;-75
2022/05/23 05:21:37;;;;;;;13.60;8.50;;;;;;;;;;4979128;28;20276;-75
2022/05/23 05:24:03;;;;;;;10.55;8.07;;;;;;;;;;4981831;28;20043;-74
2022/05/23 05:26:29;;;;;;;10.80;7.72;;;;;;;;;;4984444;28;20027;-74
2022/05/23 05:28:54;;;;;;;14.95;8.20;;;;;;;;;;4982580;28;20473;-74
2022/05/23 05:31:25;;;;;;;11.32;7.60;;;;;;;;;;4984828;28;20640;-73
2022/05/23 05:33:53;;;;;;;16.13;7.60;;;;;;;;;;4997873;28;20027;-73
2022/05/23 05:36:21;;;;;;;13.00;7.90;;;;;;;;;;4980782;28;20134;-74
2022/05/23 05:38:49;;;;;;;13.32;7.72;;;;;;;;;;4979341;28;20453;-73
2022/05/23 05:41:18;;;;;;;11.52;7.80;;;;;;;;;;4987750;28;20038;-73
2022/05/23 05:43:47;;;;;;;12.43;7.88;;;;;;;;;;4986925;28;20027;-73
2022/05/23 05:46:20;;;;;;;13.90;7.30;;;;;;;;;;4982864;28;20034;-71
2022/05/23 05:48:47;;;;;;;16.05;8.05;;;;;;;;;;4987630;28;20026;-73
2022/05/23 05:51:13;;;;;;;25.88;8.90;;;;;;;;;;4984114;28;20030;-73
2022/05/23 05:53:39;;;;;;;23.20;8.23;;;;;;;;;;4987130;28;20029;-72
2022/05/23 05:56:05;;;;;;;30.17;7.80;;;;;;;;;;4986970;28;20369;-73
2022/05/23 05:58:30;;;;;;;38.33;8.93;;;;;;;;;;4988546;28;20769;-80
2022/05/23 06:00:56;;;;;;;25.40;7.75;;;;;;;;;;4987308;28;20076;-73
2022/05/23 06:03:21;;;;;;;11.87;6.60;;;;;;;;;;4988032;28;20361;-73
2022/05/23 06:11:23;;;;;;;10.35;6.80;;;;;;;;;;4987201;28;20037;-71
2022/05/23 06:13:48;;;;;;;12.18;6.38;;;;;;;;;;4987453;28;20034;-71
2022/05/23 06:16:13;;;;;;;11.45;6.40;;;;;;;;;;4984431;28;20034;-71
2022/05/23 06:18:39;;;;;;;12.63;7.32;;;;;;;;;;4983702;28;20034;-71
2022/05/23 06:21:09;;;;;;;10.70;5.60;;;;;;;;;;4987117;28;20034;-71
2022/05/23 06:23:34;;;;;;;14.55;6.20;;;;;;;;;;4989016;28;20392;-70
2022/05/23 06:25:59;;;;;;;11.30;6.40;;;;;;;;;;4985827;28;20509;-71
2022/05/23 06:28:25;;;;;;;7.90;5.82;;;;;;;;;;4985898;28;20118;-71
2022/05/23 06:30:50;;;;;;;13.05;5.88;;;;;;;;;;4977515;28;20076;-70
2022/05/23 06:33:16;;;;;;;10.80;5.30;;;;;;;;;;4983298;28;20168;-70
2022/05/23 06:35:41;;;;;;;12.70;6.07;;;;;;;;;;4985985;28;20455;-70
2022/05/23 06:38:06;;;;;;;15.30;6.13;;;;;;;;;;4988507;28;20030;-71
2022/05/23 06:40:31;;;;;;;13.05;5.28;;;;;;;;;;4983310;28;20351;-71
2022/05/23 06:42:56;;;;;;;8.43;5.88;;;;;;;;;;4988800;28;20130;-71
2022/05/23 06:45:21;;;;;;;9.90;5.40;;;;;;;;;;4984497;28;20038;-72
2022/05/23 06:47:47;;;;;;;9.50;5.50;;;;;;;;;;4982227;28;20026;-71
2022/05/23 06:50:12;;;;;;;8.93;6.27;;;;;;;;;;4982923;28;20050;-75
2022/05/23 06:52:37;;;;;;;6.17;5.30;;;;;;;;;;4985174;28;20355;-75
2022/05/23 06:55:02;;;;;;;7.47;5.32;;;;;;;;;;4985300;28;20023;-74
2022/05/23 06:57:28;;;;;;;7.38;5.85;;;;;;;;;;4985683;28;20381;-75
2022/05/23 06:59:53;;;;;;;10.20;5.40;;;;;;;;;;4983960;28;20500;-75
2022/05/23 07:02:18;;;;;;;8.37;5.83;;;;;;;;;;4991483;28;20760;-76
2022/05/23 07:12:57;;;;;;;7.97;6.20;;;;;;;;;;4984308;28;20112;-76
2022/05/23 07:15:22;;;;;;;12.45;6.72;;;;;;;;;;4982753;28;20037;-77
2022/05/23 07:17:48;;;;;;;15.77;5.65;;;;;;;;;;4982352;28;20030;-75
2022/05/23 07:20:14;;;;;;;9.65;5.93;;;;;;;;;;4982428;28;20030;-77
2022/05/23 07:22:39;;;;;;;16.17;6.35;;;;;;;;;;4983985;28;20056;-74
2022/05/23 07:25:06;;;;;;;8.17;4.90;;;;;;;;;;4982901;28;20405;-75
2022/05/23 07:27:31;;;;;;;7.65;5.22;;;;;;;;;;4987100;28;20104;-77
2022/05/23 07:29:56;;;;;;;6.78;4.80;;;;;;;;;;4983614;28;20073;-76
2022/05/23 07:32:21;;;;;;;8.75;5.20;;;;;;;;;;4985267;28;20769;-74
2022/05/23 07:34:47;;;;;;;7.68;4.90;;;;;;;;;;4990999;28;20038;-75
2022/05/23 07:37:12;;;;;;;9.07;5.70;;;;;;;;;;4987347;28;20069;-76
2022/05/23 07:39:38;;;;;;;14.97;5.10;;;;;;;;;;4985646;28;20033;-74
2022/05/23 07:42:04;;;;;;;10.48;5.15;;;;;;;;;;4983218;28;20268;-73
2022/05/23 07:44:29;;;;;;;7.15;5.20;;;;;;;;;;4987818;28;20093;-74
2022/05/23 07:46:55;;;;;;;13.03;6.60;;;;;;;;;;4984292;28;20058;-78
2022/05/23 07:49:20;;;;;;;8.02;5.32;;;;;;;;;;4987040;28;20278;-75
2022/05/23 07:51:45;;;;;;;8.73;4.78;;;;;;;;;;4984014;28;20038;-74
2022/05/23 08:02:22;;;;;;;8.52;5.50;;;;;;;;;;4979034;28;20034;-73
2022/05/23 08:04:48;;;;;;;8.85;5.72;;;;;;;;;;4983331;28;20019;-78
2022/05/23 08:07:13;;;;;;;6.80;5.38;;;;;;;;;;4985864;28;20543;-82
2022/05/23 08:09:41;;;;;;;9.63;5.85;;;;;;;;;;4984595;28;20066;-77
2022/05/23 08:12:06;;;;;;;9.25;6.13;;;;;;;;;;4980654;28;20037;-79
2022/05/23 08:14:32;;;;;;;10.65;5.88;;;;;;;;;;4986359;28;20030;-75
2022/05/23 08:16:57;;;;;;;10.45;5.35;;;;;;;;;;4985667;28;20332;-78
2022/05/23 08:19:22;;;;;;;14.55;6.07;;;;;;;;;;4983228;28;20139;-76
2022/05/23 08:21:50;;;;;;;8.40;5.57;;;;;;;;;;4981138;28;20030;-78
2022/05/23 08:24:16;;;;;;;9.55;5.60;;;;;;;;;;4985733;28;20026;-74
2022/05/23 08:26:42;;;;;;;9.40;5.70;;;;;;;;;;4980701;28;20045;-76
2022/05/23 08:29:07;;;;;;;10.63;5.93;;;;;;;;;;4982016;28;20030;-74
2022/05/23 08:31:36;;;;;;;7.68;5.15;;;;;;;;;;4982654;28;20354;-78
2022/05/23 08:34:01;;;;;;;10.15;5.57;;;;;;;;;;4986164;28;20106;-79
2022/05/23 08:36:26;;;;;;;5.20;4.70;;;;;;;;;;4985745;28;20109;-81
2022/05/23 08:38:51;;;;;;;10.82;5.55;;;;;;;;;;4983921;28;20374;-75
2022/05/23 08:41:18;;;;;;;8.85;5.07;;;;;;;;;;4981328;28;20026;-75
2022/05/23 08:43:43;;;;;;;8.38;4.63;;;;;;;;;;4979684;28;20390;-76
2022/05/23 08:46:12;;;;;;;9.23;4.88;;;;;;;;;;4982933;28;20392;-75
2022/05/23 08:48:37;;;;;;;6.57;4.68;;;;;;;;;;4985039;28;20030;-76
2022/05/23 08:51:07;;;;;;;6.70;4.88;;;;;;;;;;4981937;28;20046;-76
2022/05/23 08:53:35;;;;;;;7.30;4.28;;;;;;;;;;4983414;28;20089;-75
2022/05/23 08:56:04;;;;;;;7.60;4.50;;;;;;;;;;4981196;28;20033;-74
2022/05/23 08:58:34;;;;;;;7.25;4.45;;;;;;;;;;4979607;28;20049;-75
2022/05/23 09:01:04;;;;;;;9.55;4.97;;;;;;;;;;4979320;28;20053;-75
2022/05/23 09:03:31;;;;;;;7.57;4.70;;;;;;;;;;4983202;28;20384;-76
2022/05/23 09:06:00;;;;;;;5.40;4.10;;;;;;;;;;4982648;28;20031;-79
2022/05/23 09:08:27;;;;;;;11.18;4.70;;;;;;;;;;4979431;28;20030;-75
2022/05/23 09:10:58;;;;;;;9.25;4.47;;;;;;;;;;4983075;28;20084;-77
2022/05/23 09:13:27;;;;;;;7.45;4.22;;;;;;;;;;4977997;28;20030;-80
2022/05/23 09:15:53;;;;;;;8.52;4.70;;;;;;;;;;4983252;28;20038;-75
2022/05/23 09:18:22;;;;;;;4.97;4.15;;;;;;;;;;4976420;28;20081;-76
2022/05/23 09:20:49;;;;;;;6.90;4.20;;;;;;;;;;4999134;28;20030;-78
2022/05/23 09:23:26;;;;;;;7.53;4.45;;;;;;;;;;4992562;28;20037;-76
2022/05/23 09:25:51;;;;;;;7.25;4.65;;;;;;;;;;4995483;28;20072;-74
2022/05/23 09:28:28;;;;;;;5.00;4.43;;;;;;;;;;4986343;28;20034;-75
2022/05/23 09:30:58;;;;;;;6.47;4.63;;;;;;;;;;4981713;28;20061;-74
2022/05/23 09:33:24;;;;;;;27.17;4.70;;;;;;;;;;4986682;28;20030;-77
2022/05/23 09:35:51;;;;;;;7.97;4.88;;;;;;;;;;4979723;28;20402;-76
2022/05/23 09:38:18;;;;;;;11.13;4.93;;;;;;;;;;4982657;28;20058;-76
2022/05/23 09:40:44;;;;;;;18.73;5.55;;;;;;;;;;4980937;28;20037;-74
2022/05/23 09:47:44;;;;;;;9.98;5.07;;;;;;;;;;4985308;28;20409;-74
2022/05/23 09:49:23;;;;;;;12.13;4.90;;;;;;;;;;4982784;28;20036;-74
2022/05/23 09:51:48;;;;;;;;;;;;;;;;;;4987924;28;20029;-74
2022/05/23 09:54:17;;;;;;;8.07;4.85;;;;;;;;;;4985672;28;19917;-75
2022/05/23 09:56:43;;;;;;;11.52;5.18;;;;;;;;;;4985549;28;20423;-76
2022/05/23 09:59:20;;;;;;;15.57;5.85;;;;;;;;;;4988033;28;20046;-74
2022/05/23 10:01:45;;;;;;;7.60;4.82;;;;;;;;;;4985444;28;20038;-76
2022/05/23 10:04:16;;;;;;;7.27;5.63;;;;;;;;;;4985410;28;20026;-74
2022/05/23 10:06:46;;;;;;;9.38;5.15;;;;;;;;;;4987114;28;20405;-75
2022/05/23 10:09:22;;;;;;;9.38;5.28;;;;;;;;;;4987635;28;20022;-74
2022/05/23 10:11:53;;;;;;;7.05;4.80;;;;;;;;;;4984576;28;20261;-75
2022/05/23 10:14:18;;;;;;;11.55;5.80;;;;;;;;;;4985439;28;20030;-78
2022/05/23 10:16:44;;;;;;;24.93;7.93;;;;;;;;;;4983326;28;20022;-76
2022/05/23 10:19:10;;;;;;;10.02;5.70;;;;;;;;;;4986945;28;20042;-74
2022/05/23 10:21:40;;;;;;;19.80;5.65;;;;;;;;;;4989579;28;20034;-74
2022/05/23 10:24:32;;;;;;;9.27;5.25;;;;;;;;;;4985431;28;20042;-75
2022/05/23 10:27:01;;;;;;;14.35;6.40;;;;;;;;;;4984166;28;20081;-75
2022/05/23 10:29:45;;;;;;;9.10;5.40;;;;;;;;;;4988023;28;20022;-76
2022/05/23 10:32:10;;;;;;;;;;;;;;;;;;4986252;28;20084;-76
2022/05/23 10:34:50;;;;;;;12.40;5.65;;;;;;;;;;4983244;28;19925;-74
2022/05/23 10:37:20;;;;;;;12.63;5.25;;;;;;;;;;4976551;28;20037;-77
2022/05/23 10:42:29;;;;;;;;;;;;;;;;;;4987477;28;20503;-77
2022/05/23 10:45:13;;;;;;;9.00;5.28;;;;;;;;;;4984951;28;20308;-76
2022/05/23 10:47:46;;;;;;;9.93;5.80;;;;;;;;;;4984959;28;20014;-74
2022/05/23 10:50:20;;;;;;;8.98;5.68;;;;;;;;;;4985578;28;20026;-74
2022/05/23 10:52:52;;;;;;;6.72;6.03;;;;;;;;;;4987824;28;20038;-75
2022/05/23 10:55:18;;;;;;;7.93;5.43;;;;;;;;;;4987663;28;20042;-75
2022/05/23 10:57:46;;;;;;;8.35;5.40;;;;;;;;;;4976513;28;20538;-73
2022/05/23 11:00:16;;;;;;;7.22;5.63;;;;;;;;;;4983736;28;20030;-76
2022/05/23 11:02:44;;;;;;;8.20;5.72;;;;;;;;;;4994835;28;20532;-77
2022/05/23 11:05:17;;;;;;;7.85;6.32;;;;;;;;;;4986589;28;20039;-76
2022/05/23 11:07:42;;;;;;;7.05;4.63;;;;;;;;;;4989922;28;20023;-75
2022/05/23 11:10:25;;;;;;;9.88;5.00;;;;;;;;;;4983759;28;20495;-76
2022/05/23 11:12:59;;;;;;;10.13;5.85;;;;;;;;;;4985114;28;20026;-77
2022/05/23 11:15:45;;;;;;;13.32;5.35;;;;;;;;;;4989430;28;20125;-76
2022/05/23 11:18:10;;;;;;;8.48;6.47;;;;;;;;;;4971409;28;20116;-75
2022/05/23 11:20:36;;;;;;;15.02;6.18;;;;;;;;;;4979063;28;20087;-75
2022/05/23 11:23:28;;;;;;;9.85;5.68;;;;;;;;;;4982432;28;20087;-76
2022/05/23 11:25:57;;;;;;;10.82;5.28;;;;;;;;;;4983681;28;20030;-75
2022/05/23 11:34:16;;;;;;;7.35;4.68;;;;;;;;;;4982861;28;20037;-74
2022/05/23 11:39:50;;;;;;;9.57;4.70;;;;;;;;;;4975278;28;20041;-75
2022/05/23 11:42:34;;;;;;;6.28;4.53;;;;;;;;;;4983999;28;20101;-77
2022/05/23 11:45:57;;;;;;;7.75;4.40;;;;;;;;;;4985313;28;20684;-75
2022/05/23 11:47:54;;;;;;;6.80;4.05;;;;;;;;;;4989798;28;20040;-75
2022/05/23 11:50:23;;;;;;;6.78;3.70;;;;;;;;;;4985408;28;20030;-75
2022/05/23 11:53:00;;;;;;;6.32;3.60;;;;;;;;;;4985899;28;20101;-72
2022/05/23 11:55:44;;;;;;;6.50;3.90;;;;;;;;;;4983271;28;20034;-75
2022/05/23 11:58:17;;;;;;;13.18;3.35;;;;;;;;;;4979235;28;20365;-75
2022/05/23 12:00:59;;;;;;;5.25;4.20;;;;;;;;;;4983917;28;20490;-77
2022/05/23 12:03:25;;;;;;;6.20;4.60;;;;;;;;;;4985309;28;20041;-79
2022/05/23 12:06:11;;;;;;;11.75;4.75;;;;;;;;;;4983637;28;20255;-77
2022/05/23 12:08:37;;;;;;;7.45;5.05;;;;;;;;;;4984452;28;20110;-75
2022/05/23 12:11:18;;;;;;;11.65;4.93;;;;;;;;;;4984893;28;20136;-82
2022/05/23 12:13:48;;;;;;;5.75;5.18;;;;;;;;;;4986402;28;20026;-78
2022/05/23 12:16:32;;;;;;;11.43;5.45;;;;;;;;;;4984140;28;20101;-77
2022/05/23 12:19:06;;;;;;;8.90;5.13;;;;;;;;;;4985020;28;20026;-75
2022/05/23 12:21:34;;;;;;;4.93;4.43;;;;;;;;;;4980545;28;20773;-80
2022/05/23 12:24:17;;;;;;;12.45;4.50;;;;;;;;;;4987388;28;20509;-78
2022/05/23 12:26:46;;;;;;;6.35;4.00;;;;;;;;;;4983106;28;20022;-78
2022/05/23 12:29:25;;;;;;;7.28;4.25;;;;;;;;;;4985634;28;20114;-76
2022/05/23 12:32:05;;;;;;;9.75;4.82;;;;;;;;;;4982961;28;20377;-76
2022/05/23 12:34:32;;;;;;;9.45;4.30;;;;;;;;;;4983662;28;20026;-79
2022/05/23 12:36:58;;;;;;;10.63;4.50;;;;;;;;;;4982448;28;20197;-76
2022/05/23 12:39:42;;;;;;;9.15;4.65;;;;;;;;;;4983345;28;20461;-75
2022/05/23 12:42:16;;;;;;;7.43;4.63;;;;;;;;;;4983103;28;20065;-75
2022/05/23 12:44:57;;;;;;;8.23;4.95;;;;;;;;;;4983393;28;20035;-78
2022/05/23 12:47:40;;;;;;;5.22;3.95;;;;;;;;;;4984087;28;20022;-77
2022/05/23 12:50:18;;;;;;;8.02;5.15;;;;;;;;;;4987599;28;20037;-76
2022/05/23 12:52:58;;;;;;;6.22;4.50;;;;;;;;;;4984106;28;20108;-79
2022/05/23 12:55:35;;;;;;;7.45;4.43;;;;;;;;;;4979264;28;20022;-75
2022/05/23 12:58:01;;;;;;;8.30;4.10;;;;;;;;;;4987317;28;20513;-77
2022/05/23 13:00:34;;;;;;;9.13;4.78;;;;;;;;;;4986315;28;20031;-80
2022/05/23 13:03:07;;;;;;;7.78;3.60;;;;;;;;;;4987062;28;20132;-80
2022/05/23 13:05:34;;;;;;;9.18;4.10;;;;;;;;;;4985624;28;20041;-79
2022/05/23 13:08:02;;;;;;;9.95;4.32;;;;;;;;;;4987174;28;20477;-79
2022/05/23 13:10:31;;;;;;;6.57;4.03;;;;;;;;;;4985885;28;20047;-77
2022/05/23 13:12:59;;;;;;;11.93;4.03;;;;;;;;;;4987892;28;20022;-79
2022/05/23 13:15:27;;;;;;;8.10;4.50;;;;;;;;;;4986357;28;22310;-79
2022/05/23 13:17:53;;;;;;;10.52;4.25;;;;;;;;;;4985198;28;20044;-78
2022/05/23 13:23:02;;;;;;;9.20;4.50;;;;;;;;;;4984499;28;20033;-77
2022/05/23 13:25:28;;;;;;;9.65;4.30;;;;;;;;;;4986639;28;20030;-75
2022/05/23 13:27:58;;;;;;;11.93;4.82;;;;;;;;;;4986054;28;20023;-75
2022/05/23 13:30:25;;;;;;;17.63;4.85;;;;;;;;;;4986470;28;20133;-76
2022/05/23 13:33:00;;;;;;;10.48;4.00;;;;;;;;;;4989656;28;20532;-73
2022/05/23 13:35:26;;;;;;;25.33;4.50;;;;;;;;;;4985407;28;20070;-75
2022/05/23 13:37:51;;;;;;;14.50;3.40;;;;;;;;;;4987604;28;20470;-78
2022/05/23 13:40:25;;;;;;;10.03;3.67;;;;;;;;;;4985787;28;20031;-73
2022/05/23 13:42:50;;;;;;;9.93;3.95;;;;;;;;;;4988400;28;20319;-74
2022/05/23 13:45:23;;;;;;;7.25;3.28;;;;;;;;;;4985040;28;20121;-76
2022/05/23 13:47:59;;;;;;;8.38;3.22;;;;;;;;;;4984830;28;20030;-76
2022/05/23 13:50:35;;;;;;;15.02;3.67;;;;;;;;;;4983592;28;20061;-77
2022/05/23 13:53:08;;;;;;;9.25;3.38;;;;;;;;;;4984193;28;20318;-76
2022/05/23 13:55:34;;;;;;;;;;;;;;;;;;4988123;28;20079;-74
2022/05/23 13:58:07;;;;;;;7.50;3.17;;;;;;;;;;4986181;28;19921;-76
2022/05/23 14:00:43;;;;;;;9.50;3.40;;;;;;;;;;4980365;28;20027;-76
2022/05/23 14:03:31;;;;;;;6.43;3.45;;;;;;;;;;4993216;28;20033;-76
2022/05/23 14:05:57;;;;;;;8.05;3.97;;;;;;;;;;4980038;28;20559;-75
2022/05/23 14:08:33;;;;;;;9.85;3.80;;;;;;;;;;4989240;28;20034;-75
2022/05/23 14:10:59;;;;;;;10.63;3.50;;;;;;;;;;4985534;28;20493;-78
2022/05/23 14:13:28;;;;;;;11.10;4.35;;;;;;;;;;4986469;28;20036;-75
2022/05/23 14:15:54;;;;;;;6.35;3.85;;;;;;;;;;4985915;28;20365;-77
2022/05/23 14:18:19;;;;;;;8.27;4.85;;;;;;;;;;4990583;28;20053;-74
2022/05/23 14:20:48;;;;;;;11.65;4.15;;;;;;;;;;4986889;28;20153;-76
2022/05/23 14:23:13;;;;;;;7.25;4.43;;;;;;;;;;4986826;28;20034;-76
2022/05/23 14:25:40;;;;;;;4.40;3.90;;;;;;;;;;4985912;28;20717;-77
2022/05/23 14:28:08;;;;;;;5.30;3.40;;;;;;;;;;4984401;28;20397;-74
2022/05/23 14:30:37;;;;;;;9.18;4.05;;;;;;;;;;4979646;28;20033;-74
2022/05/23 14:33:17;;;;;;;9.05;4.35;;;;;;;;;;4983613;28;20026;-75
2022/05/23 14:35:50;;;;;;;7.60;4.00;;;;;;;;;;4981862;28;20022;-75
2022/05/23 14:38:27;;;;;;;5.57;3.85;;;;;;;;;;4985639;28;20026;-75
2022/05/23 14:40:53;;;;;;;6.70;4.18;;;;;;;;;;4983195;28;20061;-74
2022/05/23 14:43:25;;;;;;;6.55;3.80;;;;;;;;;;4984104;28;20026;-75
2022/05/23 14:45:51;;;;;;;10.18;4.45;;;;;;;;;;4986062;28;20030;-74
2022/05/23 14:48:39;;;;;;;7.07;3.58;;;;;;;;;;4986000;28;20036;-75
2022/05/23 14:51:14;;;;;;;5.93;3.50;;;;;;;;;;4984697;28;20109;-74
2022/05/23 14:56:26;;;;;;;5.78;4.40;;;;;;;;;;4983885;28;20397;-75
2022/05/23 15:01:37;;;;;;;11.73;5.55;;;;;;;;;;4985364;28;20041;-75
2022/05/23 15:04:04;;;;;;;9.05;5.20;;;;;;;;;;4984728;28;20054;-74
2022/05/23 15:06:30;;;;;;;13.77;6.63;;;;;;;;;;4978998;28;20034;-72
2022/05/23 15:08:57;;;;;;;12.30;5.60;;;;;;;;;;4987593;28;20035;-77
2022/05/23 15:11:25;;;;;;;6.05;4.30;;;;;;;;;;4987430;28;20042;-74
2022/05/23 15:13:50;;;;;;;11.02;5.78;;;;;;;;;;4985106;28;20189;-73
2022/05/23 15:16:19;;;;;;;12.20;6.97;;;;;;;;;;4983669;28;20566;-75
2022/05/23 15:18:45;;;;;;;12.93;6.80;;;;;;;;;;4983011;28;20054;-71
2022/05/23 15:21:11;;;;;;;8.45;5.95;;;;;;;;;;4983625;28;20030;-75
2022/05/23 15:23:38;;;;;;;8.73;6.03;;;;;;;;;;4983680;28;20034;-80
2022/05/23 15:26:04;;;;;;;12.45;5.63;;;;;;;;;;4984318;28;20011;-75
2022/05/23 15:28:29;;;;;;;11.73;6.72;;;;;;;;;;4976030;28;20126;-76
2022/05/23 15:30:55;;;;;;;10.00;7.50;;;;;;;;;;4985584;28;20019;-77
2022/05/23 15:33:20;;;;;;;13.30;7.80;;;;;;;;;;4988462;28;20033;-78
2022/05/23 15:35:45;;;;;;;13.97;7.00;;;;;;;;;;4984221;28;20022;-73
2022/05/23 15:38:11;;;;;;;14.33;8.30;;;;;;;;;;4978943;28;20030;-77
2022/05/23 15:40:37;;;;;;;13.70;8.13;;;;;;;;;;4983105;28;20395;-80
2022/05/23 15:43:02;;;;;;;15.35;8.18;;;;;;;;;;4975802;28;20121;-75
2022/05/23 15:45:29;;;;;;;12.45;7.80;;;;;;;;;;4980148;28;20030;-76
2022/05/23 15:47:55;;;;;;;12.82;8.60;;;;;;;;;;4980573;28;20469;-75